Time;durP1;ratioP1;P1;durP2;ratioP2;P2;SDS_P1;SDS_P2;PMS_P1;PMS_P2;Temp;Humidity;BMP_temperature;BMP_pressure;BME280_temperature;BME280_humidity;BME280_pressure;Samples;Min_cycle;Max_cycle;Signal;HPM_P1;HPM_P2
2021/12/07 12:13:55;;;;;;;;;2.50;2.50;;;;;14.13;63.07;100883.25;6285581;22;47138;-96
2021/12/07 12:16:36;;;;;;;;;3.75;3.75;;;;;14.08;62.70;100843.59;6294600;22;44884;-95
2021/12/07 12:19:30;;;;;;;;;3.25;3.00;;;;;14.34;62.24;100848.63;6250410;22;45270;-96
2021/12/07 12:22:05;;;;;;;;;5.25;2.00;;;;;14.43;61.98;100856.88;6264920;22;45278;-95
2021/12/07 12:24:45;;;;;;;;;5.25;3.00;;;;;14.35;62.02;100825.44;6267860;22;47344;-96
2021/12/07 12:27:18;;;;;;;;;6.00;4.50;;;;;14.28;61.48;100780.59;6297930;22;44814;-96
2021/12/07 12:29:53;;;;;;;;;2.00;2.00;;;;;14.28;61.39;100767.25;6243761;22;44896;-96
2021/12/07 12:32:33;;;;;;;;;4.50;3.00;;;;;14.42;61.50;100775.94;6237930;22;45477;-96
2021/12/07 12:34:58;;;;;;;;;4.75;3.00;;;;;14.46;61.13;100772.03;6260405;22;47113;-96
2021/12/07 12:37:27;;;;;;;;;4.50;2.50;;;;;14.64;60.80;100810.66;6205557;22;45736;-95
2021/12/07 12:39:59;;;;;;;;;3.20;3.00;;;;;14.63;61.00;100799.13;6224439;22;45292;-94
2021/12/07 12:42:41;;;;;;;;;3.50;2.50;;;;;14.80;60.75;100807.59;6199918;22;45188;-95
2021/12/07 13:01:49;;;;;;;;;5.00;3.00;;;;;15.02;59.38;100761.22;6299668;22;45835;-96
2021/12/07 13:04:17;;;;;;;;;0.75;0.00;;;;;15.10;59.62;100735.66;6177045;23;44818;-96
2021/12/07 13:15:18;;;;;;;;;2.75;2.00;;;;;15.37;59.23;100752.94;6271193;22;44786;-96
2021/12/07 13:17:51;;;;;;;;;3.00;1.00;;;;;15.19;59.24;100691.25;6234755;22;44970;-96
2021/12/07 13:20:25;;;;;;;;;3.80;2.00;;;;;15.15;58.95;100647.91;6212046;22;44700;-96
2021/12/07 13:23:12;;;;;;;;;3.00;3.00;;;;;15.40;59.17;100688.50;6228576;22;44631;-96
2021/12/07 13:25:41;;;;;;;;;3.00;3.00;;;;;15.42;59.03;100686.53;6199594;22;45265;-95
2021/12/07 13:28:32;;;;;;;;;3.80;2.00;;;;;15.23;59.33;100652.59;6237332;22;47601;-96
2021/12/07 13:31:17;;;;;;;;;3.00;2.00;;;;;15.30;59.06;100644.84;6206901;22;44800;-96
2021/12/07 13:33:57;;;;;;;;;2.80;2.00;;;;;15.25;58.90;100635.44;6204603;22;45362;-96
2021/12/07 13:36:51;;;;;;;;;4.00;2.00;;;;;15.27;59.14;100629.94;6202880;22;44861;-96
2021/12/07 13:39:18;;;;;;;;;4.00;2.00;;;;;15.49;58.70;100644.06;6230651;22;46501;-96
2021/12/07 13:41:59;;;;;;;;;1.00;1.00;;;;;15.49;59.02;100634.19;6251130;22;44787;-96
2021/12/07 13:44:28;;;;;;;;;1.00;1.00;;;;;15.50;59.05;100617.19;6256641;22;44769;-96
2021/12/07 13:52:09;;;;;;;;;1.00;1.00;;;;;15.24;59.25;100545.53;6278677;22;44825;-96
2021/12/07 13:54:38;;;;;;;;;4.60;2.20;;;;;15.29;58.95;100526.41;6196959;22;45185;-96
2021/12/07 13:57:14;;;;;;;;;1.00;1.00;;;;;15.23;58.89;100521.63;6202803;22;45107;-96
2021/12/07 13:59:43;;;;;;;;;2.00;2.00;;;;;15.56;58.92;100564.97;6233052;22;45688;-96
2021/12/07 14:02:09;;;;;;;;;3.80;2.80;;;;;15.30;58.87;100520.06;6202677;22;44705;-96
2021/12/07 14:04:34;;;;;;;;;2.75;2.00;;;;;15.37;58.78;100518.56;6197570;22;45201;-96
2021/12/07 14:07:06;;;;;;;;;2.00;1.75;;;;;15.25;58.72;100487.59;6179187;22;44883;-96
2021/12/07 14:09:40;;;;;;;;;2.80;2.00;;;;;15.57;58.96;100523.91;6235912;22;45493;-96
2021/12/07 14:12:08;;;;;;;;;2.80;1.80;;;;;15.26;58.98;100474.06;6211333;22;44819;-96
2021/12/07 14:14:33;;;;;;;;;1.00;1.00;;;;;15.42;58.91;100493.22;6206324;22;44774;-96
2021/12/07 14:24:44;;;;;;;;;2.80;2.40;;;;;15.34;58.93;100448.47;6256679;22;46125;-96
2021/12/07 15:38:07;;;;;;;;;3.20;2.80;;;;;15.72;59.03;100408.44;6253172;22;46127;31
2021/12/07 16:48:36;;;;;;;;;2.40;2.40;;;;;15.75;59.71;100508.97;6265633;22;45243;-94
2021/12/07 17:33:22;;;;;;;;;1.60;0.60;;;;;15.42;60.39;100386.28;6264266;22;45712;-96
2021/12/07 17:35:55;;;;;;;;;2.60;1.60;;;;;15.54;60.56;100411.88;6224661;22;47000;-93
2021/12/07 17:39:08;;;;;;;;;2.60;1.80;;;;;15.46;60.69;100417.91;6189110;22;45544;-93
